Time;durP1;ratioP1;P1;durP2;ratioP2;P2;SDS_P1;SDS_P2;PMS_P1;PMS_P2;Temp;Humidity;BMP_temperature;BMP_pressure;BME280_temperature;BME280_humidity;BME280_pressure;Samples;Min_cycle;Max_cycle;Signal;HPM_P1;HPM_P2
2022/04/24 00:00:25;;;;;;;5.37;5.17;;;;;;;;;;5015922;28;20426;-82
2022/04/24 00:02:51;;;;;;;5.20;5.10;;;;;;;;;;5010377;28;20827;-82
2022/04/24 00:05:18;;;;;;;5.73;5.53;;;;;;;;;;5001174;28;20439;-82
2022/04/24 00:07:44;;;;;;;6.13;5.83;;;;;;;;;;5008465;28;20446;-81
2022/04/24 00:10:10;;;;;;;7.33;6.93;;;;;;;;;;4995918;28;20764;-82
2022/04/24 00:12:37;;;;;;;5.60;5.50;;;;;;;;;;5010654;28;20411;-82
2022/04/24 00:15:03;;;;;;;5.80;5.40;;;;;;;;;;5020330;28;20931;-82
2022/04/24 00:17:29;;;;;;;5.80;5.60;;;;;;;;;;4990905;28;20608;-82
2022/04/24 00:19:55;;;;;;;6.27;6.00;;;;;;;;;;4993471;28;20947;-83
2022/04/24 00:22:21;;;;;;;5.87;5.57;;;;;;;;;;5010416;28;20862;-83
2022/04/24 00:24:47;;;;;;;6.80;6.50;;;;;;;;;;5004647;28;20793;-82
2022/04/24 00:27:13;;;;;;;5.73;5.63;;;;;;;;;;5007786;28;20485;-82
2022/04/24 00:30:13;;;;;;;6.50;6.30;;;;;;;;;;4991358;28;20987;-82
2022/04/24 00:32:39;;;;;;;8.43;5.57;;;;;;;;;;5027087;28;20466;-81
2022/04/24 00:35:06;;;;;;;6.17;5.90;;;;;;;;;;5018615;28;20435;-82
2022/04/24 00:37:32;;;;;;;6.70;6.20;;;;;;;;;;5007675;28;20435;-82
2022/04/24 00:39:58;;;;;;;6.57;6.07;;;;;;;;;;5005702;28;20530;-82
2022/04/24 00:42:24;;;;;;;5.33;5.23;;;;;;;;;;4990204;28;20927;-82
2022/04/24 00:44:50;;;;;;;5.97;5.67;;;;;;;;;;5005915;28;20430;-82
2022/04/24 00:47:17;;;;;;;5.70;5.53;;;;;;;;;;5006293;28;20416;-82
2022/04/24 00:49:43;;;;;;;7.27;6.83;;;;;;;;;;5004523;28;20435;-82
2022/04/24 00:52:10;;;;;;;7.60;7.00;;;;;;;;;;4990556;28;20448;-82
2022/04/24 00:54:37;;;;;;;6.00;5.80;;;;;;;;;;4989836;28;20493;-83
2022/04/24 00:57:05;;;;;;;5.90;5.70;;;;;;;;;;5009944;28;20817;-82
2022/04/24 00:59:31;;;;;;;6.33;6.13;;;;;;;;;;5004616;28;20450;-81
2022/04/24 01:01:59;;;;;;;7.33;6.93;;;;;;;;;;4989979;28;20427;-83
2022/04/24 01:04:25;;;;;;;6.80;6.50;;;;;;;;;;5005588;28;20436;-82
2022/04/24 01:06:51;;;;;;;6.30;6.00;;;;;;;;;;5006068;28;20837;-83
2022/04/24 01:09:21;;;;;;;6.83;6.43;;;;;;;;;;5007350;28;20482;-82
2022/04/24 01:11:51;;;;;;;5.90;5.60;;;;;;;;;;4989545;28;20454;-81
2022/04/24 01:14:19;;;;;;;6.87;6.47;;;;;;;;;;5007412;28;20558;-82
2022/04/24 01:16:46;;;;;;;6.53;6.23;;;;;;;;;;4987978;28;20906;-81
2022/04/24 01:19:13;;;;;;;6.77;6.47;;;;;;;;;;5008019;28;20916;-82
2022/04/24 01:21:45;;;;;;;6.00;5.80;;;;;;;;;;5005787;28;20415;-81
2022/04/24 01:24:12;;;;;;;6.60;6.30;;;;;;;;;;4971017;28;20467;-84
2022/04/24 01:26:38;;;;;;;7.07;6.77;;;;;;;;;;5019167;28;20496;-82
2022/04/24 01:29:06;;;;;;;5.90;5.60;;;;;;;;;;4989453;28;20470;-82
2022/04/24 01:31:32;;;;;;;6.63;6.33;;;;;;;;;;4987411;28;20960;-82
2022/04/24 01:33:58;;;;;;;6.77;6.37;;;;;;;;;;5006255;28;20463;-83
2022/04/24 01:36:24;;;;;;;6.57;6.20;;;;;;;;;;5012093;28;20436;-83
2022/04/24 01:38:51;;;;;;;6.73;6.50;;;;;;;;;;5002078;28;20428;-83
2022/04/24 01:41:16;;;;;;;6.93;6.63;;;;;;;;;;4974740;28;20448;-83
2022/04/24 01:43:43;;;;;;;6.80;6.50;;;;;;;;;;4989185;28;21039;-83
2022/04/24 01:46:09;;;;;;;6.53;6.23;;;;;;;;;;5002071;28;20429;-83
2022/04/24 01:48:36;;;;;;;7.13;6.83;;;;;;;;;;5004229;28;20428;-83
2022/04/24 01:51:02;;;;;;;6.90;6.60;;;;;;;;;;5007010;28;20518;-83
2022/04/24 01:53:29;;;;;;;6.60;6.30;;;;;;;;;;5006296;28;20517;-82
2022/04/24 01:55:57;;;;;;;6.73;6.33;;;;;;;;;;5004536;28;20457;-82
2022/04/24 01:58:23;;;;;;;6.50;6.20;;;;;;;;;;5003455;28;20451;-83
2022/04/24 02:00:49;;;;;;;6.70;6.43;;;;;;;;;;4976171;28;20448;-81
2022/04/24 02:03:15;;;;;;;6.67;6.27;;;;;;;;;;5005726;28;20430;-82
2022/04/24 02:05:41;;;;;;;7.17;6.83;;;;;;;;;;5015790;28;20469;-81
2022/04/24 02:08:07;;;;;;;7.13;6.70;;;;;;;;;;4989340;28;20435;-82
2022/04/24 02:10:33;;;;;;;7.30;6.93;;;;;;;;;;4991271;28;20447;-83
2022/04/24 02:12:59;;;;;;;7.10;6.80;;;;;;;;;;5015740;28;20475;-82
2022/04/24 02:15:25;;;;;;;7.07;6.83;;;;;;;;;;5010546;28;20508;-82
2022/04/24 02:17:51;;;;;;;6.93;6.63;;;;;;;;;;5010280;28;20514;-82
2022/04/24 02:20:17;;;;;;;6.60;6.27;;;;;;;;;;5011576;28;20980;-82
2022/04/24 02:22:43;;;;;;;7.57;7.17;;;;;;;;;;4985613;28;20554;-82
2022/04/24 02:25:09;;;;;;;6.17;5.97;;;;;;;;;;4987900;28;20447;-82
2022/04/24 02:27:35;;;;;;;7.57;7.27;;;;;;;;;;4999653;28;20438;-82
2022/04/24 02:30:01;;;;;;;7.47;7.07;;;;;;;;;;5008532;28;20531;-82
2022/04/24 02:32:27;;;;;;;8.00;7.67;;;;;;;;;;5006458;28;20470;-82
2022/04/24 02:34:53;;;;;;;7.40;7.00;;;;;;;;;;4990690;28;20979;-82
2022/04/24 02:37:19;;;;;;;6.53;6.33;;;;;;;;;;4993521;28;20482;-81
2022/04/24 02:39:45;;;;;;;6.40;6.20;;;;;;;;;;4989815;28;20443;-82
2022/04/24 02:42:12;;;;;;;6.67;6.33;;;;;;;;;;4980452;28;20427;-82
2022/04/24 02:44:38;;;;;;;7.40;6.90;;;;;;;;;;5007589;28;20467;-82
2022/04/24 02:47:04;;;;;;;6.03;5.73;;;;;;;;;;4998011;28;20429;-82
2022/04/24 02:49:30;;;;;;;7.63;7.23;;;;;;;;;;5008803;28;20423;-83
2022/04/24 02:51:56;;;;;;;8.00;7.60;;;;;;;;;;4978300;28;20913;-82
2022/04/24 02:54:25;;;;;;;7.27;6.87;;;;;;;;;;4973442;28;20463;-83
2022/04/24 02:56:51;;;;;;;7.13;6.73;;;;;;;;;;4980502;28;20432;-83
2022/04/24 02:59:17;;;;;;;6.93;6.63;;;;;;;;;;4990940;28;20578;-83
2022/04/24 03:01:45;;;;;;;6.87;6.53;;;;;;;;;;4990034;28;20514;-82
2022/04/24 03:04:11;;;;;;;8.20;7.70;;;;;;;;;;4988646;28;20838;-82
2022/04/24 03:06:37;;;;;;;8.27;7.67;;;;;;;;;;5007280;28;20435;-82
2022/04/24 03:09:04;;;;;;;7.87;7.33;;;;;;;;;;5006235;28;20790;-83
2022/04/24 03:11:31;;;;;;;7.60;7.20;;;;;;;;;;4996736;28;20542;-83
2022/04/24 03:14:24;;;;;;;7.70;7.20;;;;;;;;;;5002393;28;20751;-83
2022/04/24 03:16:50;;;;;;;8.30;7.70;;;;;;;;;;4984803;28;21008;-82
2022/04/24 03:19:16;;;;;;;8.00;7.60;;;;;;;;;;5008239;28;20432;-82
2022/04/24 03:21:42;;;;;;;8.47;8.07;;;;;;;;;;4986559;28;20784;-83
2022/04/24 03:24:08;;;;;;;7.80;7.40;;;;;;;;;;5000522;28;20458;-83
2022/04/24 03:26:34;;;;;;;8.53;8.13;;;;;;;;;;5000483;28;20439;-83
2022/04/24 03:29:00;;;;;;;8.83;8.23;;;;;;;;;;5008913;28;20438;-83
2022/04/24 03:31:26;;;;;;;9.33;8.63;;;;;;;;;;4999401;28;20447;-82
2022/04/24 03:33:52;;;;;;;8.20;7.80;;;;;;;;;;4978524;28;20479;-82
2022/04/24 03:36:19;;;;;;;9.20;8.70;;;;;;;;;;5000515;28;20420;-83
2022/04/24 03:38:45;;;;;;;8.00;7.60;;;;;;;;;;4997878;28;20483;-84
2022/04/24 03:41:11;;;;;;;8.57;7.97;;;;;;;;;;5016565;28;20444;-82
2022/04/24 03:43:38;;;;;;;9.57;8.70;;;;;;;;;;4990908;28;20435;-84
2022/04/24 03:46:06;;;;;;;8.93;8.43;;;;;;;;;;4999646;28;20938;-85
2022/04/24 03:48:34;;;;;;;9.03;8.60;;;;;;;;;;4996297;28;20437;-84
2022/04/24 03:51:01;;;;;;;9.50;8.90;;;;;;;;;;4996467;28;20436;-83
2022/04/24 03:53:27;;;;;;;8.77;8.27;;;;;;;;;;4984932;28;20480;-82
2022/04/24 03:55:53;;;;;;;9.77;8.90;;;;;;;;;;5017556;28;20517;-82
2022/04/24 03:58:19;;;;;;;10.23;9.33;;;;;;;;;;5008600;28;20432;-82
2022/04/24 04:00:47;;;;;;;10.70;9.90;;;;;;;;;;4996270;28;20454;-82
2022/04/24 04:03:13;;;;;;;11.47;10.43;;;;;;;;;;4990615;28;20431;-83
2022/04/24 04:05:39;;;;;;;11.80;11.00;;;;;;;;;;4998782;28;21109;-83
2022/04/24 04:08:06;;;;;;;9.80;9.10;;;;;;;;;;5007554;28;20431;-81
2022/04/24 04:10:32;;;;;;;10.03;9.33;;;;;;;;;;5006251;28;20450;-83
2022/04/24 04:12:58;;;;;;;10.50;9.80;;;;;;;;;;5005821;28;20475;-83
2022/04/24 04:15:24;;;;;;;11.13;10.23;;;;;;;;;;4988211;28;20526;-84
2022/04/24 04:17:50;;;;;;;10.80;9.87;;;;;;;;;;5008329;28;20427;-82
2022/04/24 04:20:16;;;;;;;10.93;10.10;;;;;;;;;;5006549;28;20433;-82
2022/04/24 04:22:51;;;;;;;10.90;10.10;;;;;;;;;;4995360;28;20462;-82
2022/04/24 04:25:17;;;;;;;11.20;10.30;;;;;;;;;;5005414;28;20442;-82
2022/04/24 04:27:44;;;;;;;10.70;10.00;;;;;;;;;;5000063;28;20455;-81
2022/04/24 04:30:10;;;;;;;11.50;10.70;;;;;;;;;;4981572;28;20522;-82
2022/04/24 04:32:36;;;;;;;10.63;9.80;;;;;;;;;;4992281;28;20541;-81
2022/04/24 04:35:04;;;;;;;11.57;10.70;;;;;;;;;;4985312;28;20460;-81
2022/04/24 04:37:31;;;;;;;12.70;11.50;;;;;;;;;;5008250;28;20424;-82
2022/04/24 04:39:58;;;;;;;10.97;10.17;;;;;;;;;;4994799;28;20463;-83
2022/04/24 04:42:24;;;;;;;11.27;10.37;;;;;;;;;;4995700;28;20413;-83
2022/04/24 04:44:50;;;;;;;11.57;10.67;;;;;;;;;;4987398;28;20439;-83
2022/04/24 04:47:16;;;;;;;10.33;9.60;;;;;;;;;;4979292;28;20788;-82
2022/04/24 04:49:42;;;;;;;12.00;11.00;;;;;;;;;;5006322;28;20446;-83
2022/04/24 04:52:08;;;;;;;11.90;10.90;;;;;;;;;;4978843;28;20987;-83
2022/04/24 04:54:34;;;;;;;10.97;10.20;;;;;;;;;;4987226;28;20431;-82
2022/04/24 04:57:00;;;;;;;11.40;10.53;;;;;;;;;;4984239;28;20443;-83
2022/04/24 04:59:32;;;;;;;11.50;10.60;;;;;;;;;;5007257;28;20526;-84
2022/04/24 05:01:58;;;;;;;13.10;12.10;;;;;;;;;;5010890;28;20961;-82
2022/04/24 05:04:24;;;;;;;10.83;10.03;;;;;;;;;;4987061;28;20432;-81
2022/04/24 05:06:50;;;;;;;12.00;10.80;;;;;;;;;;4998690;28;20425;-82
2022/04/24 05:09:24;;;;;;;12.10;11.20;;;;;;;;;;4976710;28;20455;-82
2022/04/24 05:11:50;;;;;;;11.10;10.30;;;;;;;;;;4985423;28;20488;-82
2022/04/24 05:14:16;;;;;;;11.00;10.20;;;;;;;;;;4989460;28;20522;-82
2022/04/24 05:16:42;;;;;;;11.90;10.83;;;;;;;;;;4999505;28;20421;-82
2022/04/24 05:19:08;;;;;;;10.20;9.50;;;;;;;;;;5006089;28;20439;-82
2022/04/24 05:21:35;;;;;;;10.33;9.50;;;;;;;;;;4996852;28;20433;-81
2022/04/24 05:24:01;;;;;;;11.17;10.20;;;;;;;;;;4999639;28;20448;-81
2022/04/24 05:26:27;;;;;;;9.80;9.20;;;;;;;;;;4992359;28;20454;-82
2022/04/24 05:28:53;;;;;;;9.80;9.20;;;;;;;;;;5006200;28;20940;-81
2022/04/24 05:31:20;;;;;;;10.13;9.27;;;;;;;;;;4998677;28;20462;-81
2022/04/24 05:33:46;;;;;;;10.03;9.37;;;;;;;;;;4986035;28;20483;-81
2022/04/24 05:36:12;;;;;;;8.00;7.50;;;;;;;;;;5005748;28;20439;-82
2022/04/24 05:38:39;;;;;;;11.17;10.30;;;;;;;;;;4989620;28;20486;-82
2022/04/24 05:41:05;;;;;;;10.73;9.93;;;;;;;;;;5001595;28;20652;-82
2022/04/24 05:43:31;;;;;;;10.13;9.33;;;;;;;;;;4984899;28;20866;-82
2022/04/24 05:45:58;;;;;;;9.60;8.90;;;;;;;;;;4997657;28;20986;-82
2022/04/24 05:48:24;;;;;;;10.10;9.20;;;;;;;;;;4989011;28;20419;-81
2022/04/24 05:50:50;;;;;;;10.03;9.43;;;;;;;;;;5016912;28;20521;-81
2022/04/24 05:53:16;;;;;;;9.47;8.77;;;;;;;;;;5006785;28;20479;-81
2022/04/24 05:55:42;;;;;;;10.43;9.87;;;;;;;;;;5019265;28;20455;-81
2022/04/24 05:58:08;;;;;;;9.50;8.90;;;;;;;;;;5010954;28;20431;-82
2022/04/24 06:00:36;;;;;;;9.70;9.10;;;;;;;;;;4991455;28;20486;-82
2022/04/24 06:03:02;;;;;;;9.07;8.57;;;;;;;;;;5010868;28;20482;-82
2022/04/24 06:05:28;;;;;;;11.03;8.47;;;;;;;;;;5007566;28;20439;-82
2022/04/24 06:07:55;;;;;;;8.60;8.10;;;;;;;;;;4980214;28;20803;-83
2022/04/24 06:10:21;;;;;;;8.93;8.27;;;;;;;;;;4989665;28;21017;-82
2022/04/24 06:12:48;;;;;;;9.23;8.63;;;;;;;;;;5000980;28;21025;-82
2022/04/24 06:15:20;;;;;;;8.30;7.87;;;;;;;;;;4994575;28;20444;-82
2022/04/24 06:17:47;;;;;;;8.50;8.00;;;;;;;;;;5003254;28;20441;-81
2022/04/24 06:20:16;;;;;;;8.53;8.13;;;;;;;;;;4996063;28;20943;-81
2022/04/24 06:23:00;;;;;;;7.93;7.47;;;;;;;;;;5015665;28;20447;-82
2022/04/24 06:25:27;;;;;;;9.67;8.50;;;;;;;;;;5001220;28;20450;-82
2022/04/24 06:27:53;;;;;;;8.97;8.37;;;;;;;;;;5008383;28;20431;-82
2022/04/24 06:30:21;;;;;;;8.67;8.10;;;;;;;;;;4308427;28;10000708;-82
2022/04/24 06:32:47;;;;;;;8.87;8.37;;;;;;;;;;5006254;28;20489;-82
2022/04/24 06:35:14;;;;;;;7.93;7.53;;;;;;;;;;4998486;28;20456;-83
2022/04/24 06:37:41;;;;;;;9.90;9.03;;;;;;;;;;4987110;28;20784;-84
2022/04/24 06:40:08;;;;;;;8.67;8.17;;;;;;;;;;5004582;28;20470;-82
2022/04/24 06:42:35;;;;;;;9.93;9.03;;;;;;;;;;5007039;28;20493;-81
2022/04/24 06:45:01;;;;;;;8.50;7.80;;;;;;;;;;4997770;28;21084;-82
2022/04/24 06:47:28;;;;;;;9.37;8.67;;;;;;;;;;5005445;28;20427;-82
2022/04/24 06:49:56;;;;;;;8.33;7.90;;;;;;;;;;4995114;28;20450;-82
2022/04/24 06:52:23;;;;;;;7.93;7.53;;;;;;;;;;4990665;28;20532;-82
2022/04/24 06:54:49;;;;;;;8.87;8.00;;;;;;;;;;5006179;28;20546;-81
2022/04/24 06:57:15;;;;;;;8.57;8.17;;;;;;;;;;4999793;28;20499;-82
2022/04/24 06:59:41;;;;;;;9.17;8.60;;;;;;;;;;5014186;28;20446;-82
2022/04/24 07:02:07;;;;;;;9.47;8.83;;;;;;;;;;5002136;28;20513;-82
2022/04/24 07:04:33;;;;;;;8.27;7.67;;;;;;;;;;5002989;28;20412;-81
2022/04/24 07:07:01;;;;;;;8.80;8.37;;;;;;;;;;4981542;28;20445;-82
2022/04/24 07:09:27;;;;;;;9.80;9.00;;;;;;;;;;5005908;28;20436;-83
2022/04/24 07:11:53;;;;;;;9.73;9.03;;;;;;;;;;5009494;28;20443;-84
2022/04/24 07:14:19;;;;;;;9.17;8.67;;;;;;;;;;4974408;28;20858;-81
2022/04/24 07:16:45;;;;;;;9.53;8.87;;;;;;;;;;4997627;28;20914;-82
2022/04/24 07:19:11;;;;;;;9.23;8.53;;;;;;;;;;5000459;28;20424;-82
2022/04/24 07:21:37;;;;;;;9.13;8.63;;;;;;;;;;5007152;28;20493;-83
2022/04/24 07:24:03;;;;;;;9.57;8.93;;;;;;;;;;5009240;28;20450;-82
2022/04/24 07:26:29;;;;;;;10.00;9.40;;;;;;;;;;4997643;28;20424;-83
2022/04/24 07:28:55;;;;;;;10.60;9.77;;;;;;;;;;5008579;28;20442;-83
2022/04/24 07:31:21;;;;;;;10.30;9.50;;;;;;;;;;5019636;28;20522;-83
2022/04/24 07:33:47;;;;;;;10.33;9.73;;;;;;;;;;4660417;28;10000627;-83
2022/04/24 07:36:13;;;;;;;9.90;9.30;;;;;;;;;;5002058;28;20451;-82
2022/04/24 07:38:39;;;;;;;10.00;9.13;;;;;;;;;;5002769;28;20530;-82
2022/04/24 07:41:05;;;;;;;10.13;9.63;;;;;;;;;;4999788;28;20518;-83
2022/04/24 07:43:33;;;;;;;9.03;8.53;;;;;;;;;;4985094;28;20440;-83
2022/04/24 07:45:59;;;;;;;10.10;9.50;;;;;;;;;;4978172;28;20412;-83
2022/04/24 07:48:26;;;;;;;9.93;9.33;;;;;;;;;;5003304;28;20439;-83
2022/04/24 07:50:52;;;;;;;9.90;9.20;;;;;;;;;;5008780;28;20442;-83
2022/04/24 07:53:18;;;;;;;9.00;8.50;;;;;;;;;;4997093;28;20486;-79
2022/04/24 07:55:45;;;;;;;9.73;9.17;;;;;;;;;;4998065;28;20482;-82
2022/04/24 07:58:12;;;;;;;9.63;9.03;;;;;;;;;;4997084;28;20471;-83
2022/04/24 08:00:39;;;;;;;8.83;8.37;;;;;;;;;;4986957;28;20459;-83
2022/04/24 08:03:09;;;;;;;9.60;9.00;;;;;;;;;;4997378;28;20702;-84
2022/04/24 08:05:38;;;;;;;9.73;9.17;;;;;;;;;;5003250;28;20558;-83
2022/04/24 08:08:06;;;;;;;9.93;9.33;;;;;;;;;;5004820;28;20792;-83
2022/04/24 08:10:34;;;;;;;10.57;9.97;;;;;;;;;;4984981;28;20439;-80
2022/04/24 08:13:00;;;;;;;10.43;9.63;;;;;;;;;;5004572;28;20798;-82
2022/04/24 08:15:27;;;;;;;9.50;8.93;;;;;;;;;;5001614;28;20567;-83
2022/04/24 08:17:53;;;;;;;11.33;10.23;;;;;;;;;;4981921;28;20475;-83
2022/04/24 08:20:19;;;;;;;9.87;9.30;;;;;;;;;;5003359;28;20439;-83
2022/04/24 08:22:46;;;;;;;11.13;10.30;;;;;;;;;;4998445;28;20459;-83
2022/04/24 08:25:13;;;;;;;11.03;10.33;;;;;;;;;;5000854;28;20664;-84
2022/04/24 08:27:39;;;;;;;10.47;9.87;;;;;;;;;;5005519;28;20427;-83
2022/04/24 08:30:06;;;;;;;10.53;9.93;;;;;;;;;;4997200;28;20454;-81
2022/04/24 08:32:33;;;;;;;10.47;9.70;;;;;;;;;;5006375;28;20482;-84
2022/04/24 08:34:59;;;;;;;10.60;10.10;;;;;;;;;;4995516;28;20680;-79
2022/04/24 08:37:25;;;;;;;9.73;9.23;;;;;;;;;;4992100;28;20444;-83
2022/04/24 08:39:52;;;;;;;12.53;11.63;;;;;;;;;;5012594;28;20819;-83
2022/04/24 08:42:21;;;;;;;15.40;11.67;;;;;;;;;;5008689;28;20474;-83
2022/04/24 08:44:47;;;;;;;10.40;9.80;;;;;;;;;;5006423;28;20431;-84
2022/04/24 08:47:15;;;;;;;11.10;10.30;;;;;;;;;;5003506;28;20444;-82
2022/04/24 08:49:41;;;;;;;10.47;9.80;;;;;;;;;;5006175;28;20519;-84
2022/04/24 08:52:08;;;;;;;9.57;8.93;;;;;;;;;;4999799;28;20428;-82
2022/04/24 08:54:34;;;;;;;10.53;9.83;;;;;;;;;;4997551;28;20480;-83
2022/04/24 08:57:00;;;;;;;11.17;10.47;;;;;;;;;;4983773;28;20435;-84
2022/04/24 08:59:26;;;;;;;9.47;8.87;;;;;;;;;;5001398;28;20797;-84
2022/04/24 09:01:52;;;;;;;11.00;10.20;;;;;;;;;;4984292;28;20464;-82
2022/04/24 09:04:19;;;;;;;11.57;10.83;;;;;;;;;;5006339;28;20518;-83
2022/04/24 09:06:55;;;;;;;12.43;11.63;;;;;;;;;;4985700;28;20420;-83
2022/04/24 09:09:32;;;;;;;11.20;10.40;;;;;;;;;;4972441;28;20498;-84
2022/04/24 09:12:30;;;;;;;11.20;10.50;;;;;;;;;;5001025;28;20814;-82
2022/04/24 09:14:57;;;;;;;12.87;11.87;;;;;;;;;;4624033;28;10001026;-81
2022/04/24 09:17:24;;;;;;;12.03;11.20;;;;;;;;;;4983829;28;20428;-84
2022/04/24 09:19:51;;;;;;;11.20;10.20;;;;;;;;;;4998449;28;20408;-84
2022/04/24 09:25:12;;;;;;;11.23;10.53;;;;;;;;;;4998916;28;20557;-83
2022/04/24 09:27:44;;;;;;;10.97;10.37;;;;;;;;;;4986095;28;20497;-82
2022/04/24 09:30:14;;;;;;;11.20;10.60;;;;;;;;;;5002104;28;20426;-84
2022/04/24 09:32:51;;;;;;;11.90;11.17;;;;;;;;;;5004624;28;20545;-83
2022/04/24 09:35:36;;;;;;;11.20;10.40;;;;;;;;;;4986748;28;20471;-79
2022/04/24 09:38:08;;;;;;;12.53;11.40;;;;;;;;;;5001663;28;20736;-82
2022/04/24 09:40:45;;;;;;;10.67;10.03;;;;;;;;;;5001553;28;20473;-84
2022/04/24 09:43:19;;;;;;;11.07;10.27;;;;;;;;;;4988245;28;20823;-83
2022/04/24 09:45:55;;;;;;;11.33;10.63;;;;;;;;;;5000570;28;20432;-84
2022/04/24 09:48:27;;;;;;;11.17;10.47;;;;;;;;;;5000886;28;20427;-82
2022/04/24 09:50:54;;;;;;;13.03;12.33;;;;;;;;;;5002251;28;20490;-82
2022/04/24 09:53:22;;;;;;;10.60;10.10;;;;;;;;;;5003229;28;20463;-83
2022/04/24 09:55:50;;;;;;;11.33;10.73;;;;;;;;;;5003939;28;20438;-83
2022/04/24 09:58:16;;;;;;;12.40;11.60;;;;;;;;;;5003659;28;20427;-83
2022/04/24 10:00:44;;;;;;;14.23;13.23;;;;;;;;;;5004531;28;20422;-82
2022/04/24 10:03:10;;;;;;;12.27;9.67;;;;;;;;;;4993485;28;20525;-85
2022/04/24 10:05:42;;;;;;;11.77;11.03;;;;;;;;;;5005928;28;20434;-84
2022/04/24 10:08:08;;;;;;;11.60;10.80;;;;;;;;;;5006148;28;20428;-84
2022/04/24 10:10:34;;;;;;;12.20;11.33;;;;;;;;;;5004374;28;20404;-83
2022/04/24 10:13:01;;;;;;;12.60;11.40;;;;;;;;;;4659492;28;10000274;-84
2022/04/24 10:15:27;;;;;;;11.60;10.90;;;;;;;;;;5012518;28;20200;-87
2022/04/24 10:18:16;;;;;;;11.10;10.50;;;;;;;;;;5009411;28;20435;-84
2022/04/24 10:20:45;;;;;;;12.17;10.97;;;;;;;;;;4997063;28;20480;-85
2022/04/24 10:23:14;;;;;;;11.97;11.30;;;;;;;;;;4995567;28;20467;-81
2022/04/24 10:25:41;;;;;;;13.17;12.30;;;;;;;;;;5007947;28;20412;-82
2022/04/24 10:28:13;;;;;;;13.07;12.37;;;;;;;;;;5008860;28;20452;-84
2022/04/24 10:30:40;;;;;;;12.80;12.10;;;;;;;;;;5020465;28;20421;-84
2022/04/24 10:33:18;;;;;;;13.20;12.30;;;;;;;;;;5006298;28;20430;-84
2022/04/24 10:35:50;;;;;;;13.20;12.40;;;;;;;;;;5024859;28;20461;-84
2022/04/24 10:38:17;;;;;;;11.40;10.67;;;;;;;;;;5024386;28;20791;-81
2022/04/24 10:40:56;;;;;;;11.37;10.57;;;;;;;;;;5016362;28;20400;-83
2022/04/24 10:43:23;;;;;;;11.33;10.50;;;;;;;;;;5011130;28;20696;-83
2022/04/24 10:45:50;;;;;;;10.67;10.00;;;;;;;;;;5027745;28;20790;-83
2022/04/24 10:48:16;;;;;;;11.40;10.60;;;;;;;;;;5005308;28;20509;-83
2022/04/24 10:50:52;;;;;;;11.30;10.37;;;;;;;;;;5006583;28;20501;-84
2022/04/24 10:53:18;;;;;;;11.60;10.80;;;;;;;;;;5009667;28;20425;-83
2022/04/24 10:55:44;;;;;;;10.33;9.77;;;;;;;;;;5008290;28;20512;-81
2022/04/24 10:58:11;;;;;;;13.50;12.60;;;;;;;;;;5004870;28;20917;-84
2022/04/24 11:00:38;;;;;;;12.77;11.77;;;;;;;;;;5007552;28;20482;-80
2022/04/24 11:03:14;;;;;;;11.33;10.73;;;;;;;;;;4999766;28;20507;-88
2022/04/24 11:05:41;;;;;;;11.50;10.40;;;;;;;;;;5008185;28;20466;-82
2022/04/24 11:08:08;;;;;;;10.53;9.83;;;;;;;;;;5009531;28;20779;-83
2022/04/24 11:10:42;;;;;;;11.30;10.60;;;;;;;;;;4995663;28;20515;-90
2022/04/24 11:13:16;;;;;;;13.07;12.17;;;;;;;;;;5005637;28;20493;-81
2022/04/24 11:15:44;;;;;;;12.60;11.80;;;;;;;;;;5010998;28;20680;-82
2022/04/24 11:18:29;;;;;;;13.03;11.87;;;;;;;;;;5018542;28;20788;-85
2022/04/24 11:21:03;;;;;;;12.00;10.87;;;;;;;;;;5014517;28;20955;-83
2022/04/24 11:23:30;;;;;;;12.00;11.07;;;;;;;;;;5018849;28;20626;-86
2022/04/24 11:25:57;;;;;;;12.60;11.80;;;;;;;;;;5033970;28;20419;-87
2022/04/24 11:28:42;;;;;;;11.57;10.93;;;;;;;;;;5031637;28;20430;-87
2022/04/24 11:33:57;;;;;;;11.90;11.00;;;;;;;;;;5031216;26;20512;-86
2022/04/24 11:36:33;;;;;;;11.80;10.67;;;;;;;;;;5031232;28;20783;-86
2022/04/24 11:39:03;;;;;;;11.00;10.33;;;;;;;;;;5029672;28;20434;-83
2022/04/24 11:41:31;;;;;;;11.97;11.27;;;;;;;;;;5034659;28;20430;-84
2022/04/24 11:44:01;;;;;;;10.63;10.03;;;;;;;;;;5039610;28;20472;-86
2022/04/24 11:51:56;;;;;;;10.47;9.87;;;;;;;;;;5053636;28;20413;-85
2022/04/24 11:54:23;;;;;;;10.73;10.13;;;;;;;;;;5058670;28;20420;-83
2022/04/24 11:56:50;;;;;;;10.60;10.00;;;;;;;;;;5071511;28;20817;-87
2022/04/24 11:59:18;;;;;;;11.00;10.50;;;;;;;;;;5060011;28;20517;-83
2022/04/24 12:01:45;;;;;;;8.93;8.63;;;;;;;;;;5049280;28;20738;-83
2022/04/24 12:04:18;;;;;;;11.30;10.40;;;;;;;;;;5034379;28;20464;-84
2022/04/24 12:06:44;;;;;;;11.23;10.63;;;;;;;;;;5068318;28;20409;-83
2022/04/24 12:09:10;;;;;;;11.13;10.40;;;;;;;;;;5039069;28;20454;-85
2022/04/24 12:11:36;;;;;;;14.13;13.17;;;;;;;;;;5029664;28;20421;-83
2022/04/24 12:14:13;;;;;;;11.13;10.30;;;;;;;;;;5025206;28;20481;-85
2022/04/24 12:16:40;;;;;;;11.60;10.80;;;;;;;;;;5057753;28;20481;-84
2022/04/24 12:19:09;;;;;;;12.10;11.40;;;;;;;;;;5044390;28;20678;-84
2022/04/24 12:21:44;;;;;;;27.13;24.60;;;;;;;;;;5052421;28;20445;-83
2022/04/24 12:24:10;;;;;;;14.10;13.10;;;;;;;;;;5048013;28;20476;-85
2022/04/24 12:26:45;;;;;;;10.63;9.83;;;;;;;;;;5034271;28;20448;-83
2022/04/24 12:29:11;;;;;;;10.03;9.53;;;;;;;;;;5033527;28;20472;-79
2022/04/24 12:31:37;;;;;;;10.17;9.57;;;;;;;;;;5048092;28;20446;-83
2022/04/24 12:34:03;;;;;;;9.47;8.97;;;;;;;;;;5093374;23;20954;-84
2022/04/24 12:36:29;;;;;;;11.20;10.20;;;;;;;;;;5005536;28;20441;-79
2022/04/24 12:38:55;;;;;;;11.00;10.40;;;;;;;;;;5010824;28;20435;-82
2022/04/24 12:41:23;;;;;;;10.40;9.30;;;;;;;;;;5011626;28;20411;-85
2022/04/24 12:43:53;;;;;;;10.23;9.70;;;;;;;;;;5017139;28;20482;-85
2022/04/24 12:46:19;;;;;;;10.70;10.00;;;;;;;;;;5014656;28;20472;-84
2022/04/24 12:48:46;;;;;;;10.43;9.93;;;;;;;;;;5003036;28;20440;-86
2022/04/24 12:51:29;;;;;;;11.00;10.23;;;;;;;;;;4993903;28;20416;-82
2022/04/24 12:53:59;;;;;;;11.70;10.67;;;;;;;;;;5015026;28;20430;-83
2022/04/24 12:56:44;;;;;;;11.93;10.97;;;;;;;;;;5009348;28;20782;-86
2022/04/24 12:59:13;;;;;;;11.33;10.40;;;;;;;;;;5006107;28;20466;-84
2022/04/24 13:01:41;;;;;;;11.00;10.30;;;;;;;;;;5017737;28;20416;-83
2022/04/24 13:06:40;;;;;;;10.07;9.27;;;;;;;;;;5010481;28;20990;-86
2022/04/24 13:09:06;;;;;;;9.00;8.50;;;;;;;;;;4992531;28;20435;-86
2022/04/24 13:11:32;;;;;;;10.10;9.60;;;;;;;;;;5012120;28;20460;-85
2022/04/24 13:14:01;;;;;;;10.17;9.60;;;;;;;;;;5011242;28;20434;-85
2022/04/24 13:19:13;;;;;;;10.30;9.70;;;;;;;;;;5007884;28;20449;-87
2022/04/24 13:21:41;;;;;;;9.07;8.57;;;;;;;;;;5019484;28;20744;-87
2022/04/24 13:24:07;;;;;;;8.77;8.30;;;;;;;;;;5006101;28;20474;-87
2022/04/24 13:26:34;;;;;;;8.73;8.13;;;;;;;;;;5028470;28;20813;-88
2022/04/24 13:29:00;;;;;;;8.50;8.13;;;;;;;;;;5016447;28;20496;-87
2022/04/24 13:31:26;;;;;;;9.97;9.37;;;;;;;;;;5002766;28;20500;-88
2022/04/24 13:33:56;;;;;;;10.50;9.70;;;;;;;;;;5011134;28;20432;-86
2022/04/24 13:36:23;;;;;;;9.20;8.57;;;;;;;;;;4314103;28;10001121;-86
2022/04/24 13:38:49;;;;;;;9.83;9.23;;;;;;;;;;4997353;28;21160;-87
2022/04/24 13:41:15;;;;;;;7.60;7.07;;;;;;;;;;4991952;28;20520;-87
2022/04/24 13:43:42;;;;;;;8.40;7.80;;;;;;;;;;5012841;28;20539;-89
2022/04/24 13:46:28;;;;;;;8.60;8.20;;;;;;;;;;5003136;28;20429;-86
2022/04/24 13:49:00;;;;;;;9.80;9.20;;;;;;;;;;4998048;28;20420;-87
2022/04/24 13:51:29;;;;;;;8.37;7.97;;;;;;;;;;5000520;28;20416;-87
2022/04/24 13:53:55;;;;;;;9.20;8.77;;;;;;;;;;5003031;28;20544;-88
2022/04/24 13:56:24;;;;;;;9.53;8.63;;;;;;;;;;4996376;28;20529;-87
2022/04/24 13:58:57;;;;;;;8.00;7.60;;;;;;;;;;4998272;28;20544;-85
2022/04/24 14:01:24;;;;;;;8.97;8.47;;;;;;;;;;5007135;28;20627;-87
2022/04/24 14:03:50;;;;;;;9.20;8.70;;;;;;;;;;5000494;28;20534;-87
2022/04/24 14:06:23;;;;;;;8.93;8.40;;;;;;;;;;5016459;28;20470;-89
2022/04/24 14:08:54;;;;;;;9.23;8.83;;;;;;;;;;4996746;28;20923;-87
2022/04/24 14:11:20;;;;;;;10.07;9.57;;;;;;;;;;4997871;28;20430;-87
2022/04/24 14:13:46;;;;;;;8.70;8.13;;;;;;;;;;5022603;28;20446;-88
2022/04/24 14:16:18;;;;;;;8.90;8.37;;;;;;;;;;5002211;28;20436;-85
2022/04/24 14:18:47;;;;;;;8.97;8.27;;;;;;;;;;5003072;28;20935;-87
2022/04/24 14:21:13;;;;;;;8.03;7.73;;;;;;;;;;5021045;28;20442;-88
2022/04/24 14:23:40;;;;;;;8.00;7.70;;;;;;;;;;5016323;28;20546;-87
2022/04/24 14:26:06;;;;;;;8.40;8.00;;;;;;;;;;5023165;28;20506;-86
2022/04/24 14:28:32;;;;;;;8.30;7.80;;;;;;;;;;5025228;28;20446;-90
2022/04/24 14:30:58;;;;;;;8.10;7.73;;;;;;;;;;4993074;28;20527;-86
2022/04/24 14:33:27;;;;;;;8.83;8.20;;;;;;;;;;5027719;28;20489;-87
2022/04/24 14:35:53;;;;;;;8.10;7.80;;;;;;;;;;5027783;28;20427;-87
2022/04/24 14:38:19;;;;;;;9.20;8.70;;;;;;;;;;5027270;28;20438;-86
2022/04/24 14:40:50;;;;;;;8.40;7.90;;;;;;;;;;5028171;28;20431;-89
2022/04/24 14:43:18;;;;;;;8.83;8.23;;;;;;;;;;4989060;28;20475;-87
2022/04/24 14:56:53;;;;;;;8.03;7.43;;;;;;;;;;5027402;28;20425;-87
2022/04/24 14:59:20;;;;;;;7.63;7.23;;;;;;;;;;5027717;28;20424;-86
2022/04/24 15:01:46;;;;;;;8.37;7.77;;;;;;;;;;5018604;28;20431;-89
2022/04/24 15:04:12;;;;;;;8.37;7.60;;;;;;;;;;5014283;28;20717;-89